Etusivu
METAR-TAF:

METAR-TAF

Lentoasemat :

Bacău, Romania

Leveyspiiri: 46-35N, Pituuspiiri: 026-58E, korkeus merenpinnasta: 184 m

Tämänhetkinen sää

Tämä raportti tehtiin 22 minuuttia sitten, kello 09.00 UTC
Tuuli 1 kn eri suunnista
Lämpötila 3°C
Kosteus 93%
Ilmanpaine 1019 hPa
Näkyvyys: 8000 m

METAR: LRBC 180900Z VRB01KT 8000 NSC 03/02 Q1019

Aika: 11:22 (09:22 UTC)

Sääennuste

Tämä raportti tehtiin 1 tunti ja 22 minuuttia sitten, kello 08.00 UTC
Ennuste voimassa 18. päivästä klo 09 UTC - 18. päivään klo 18 UTC
Tuuli 4 kn eri suunnista
Näkyvyys: 5000 m
Hajanaisia pilviä 200 ft:n korkeudessa
utua
Tulossa
18. päivästä klo 09 UTC - 18. päivään klo 11 UTC
Näkyvyys 10 km tai enemmän
ei pilviä alle 1500 m:ssä eikä cumulonimbus-pilviä
Tulossa
18. päivästä klo 11 UTC - 18. päivään klo 13 UTC
Tuuli 10 kn pohjoisesta

TAF: LRBC 180800Z 1809/1818 VRB04KT 5000 BR SCT002 BECMG 1809/1811 CAVOK BECMG 1811/1813 36010KT

Säähavainnot ja -ennusteet yli 4000 lentoasemalta (METAR- ja TAF-raportit).

Käytössä olevat sääasemat on merkitty karttaan keltaisilla ja punaisilla pisteillä.

Aseta hiiri pisteen päälle nähdäksesi sääaseman nimen.

Klikkaa sitten nähdäksesi säähavainnot ja -ennusteet.

Kartan vaihtaminen: klikkaa mustalla rastilla varustettuja vihreitä pisteitä, niin voit zoomata sisään; viivalla varustettua vihreää pistettä, niin voit zoomata ulos tai vihreitä nuolia, niin pääset viereisille kartoille.


METAR-TAF: